createdAt,value
2018-09-21T00:00:23.057Z,100379.11
2018-09-21T00:02:51.201Z,100369.64
2018-09-21T00:05:19.344Z,100367.45
2018-09-21T00:07:47.529Z,100366.61
2018-09-21T00:10:15.620Z,100362.30
2018-09-21T00:12:43.761Z,100358.78
2018-09-21T00:15:11.843Z,100357.59
2018-09-21T00:17:39.930Z,100354.07
2018-09-21T00:20:08.078Z,100345.78
2018-09-21T00:22:36.178Z,100346.17
2018-09-21T00:25:04.433Z,100342.65
2018-09-21T00:27:32.552Z,100335.83
2018-09-21T00:30:00.674Z,100333.95
2018-09-21T00:32:28.781Z,100334.02
2018-09-21T00:34:56.941Z,100338.89
2018-09-21T00:37:25.037Z,100326.08
2018-09-21T00:39:53.184Z,100321.48
2018-09-21T00:42:21.330Z,100315.14
2018-09-21T00:44:49.453Z,100310.06
2018-09-21T00:47:17.601Z,100304.91
2018-09-21T00:49:45.708Z,100300.24
2018-09-21T00:52:13.845Z,100302.36
2018-09-21T00:54:41.997Z,100297.11
2018-09-21T00:57:10.111Z,100290.46
2018-09-21T00:59:38.203Z,100289.48
2018-09-21T01:02:06.328Z,100281.20
2018-09-21T01:04:39.843Z,100280.16
2018-09-21T01:07:07.983Z,100280.61
2018-09-21T01:09:36.108Z,100267.03
2018-09-21T01:12:04.236Z,100270.72
2018-09-21T01:14:32.398Z,100263.24
2018-09-21T01:17:00.619Z,100271.88
2018-09-21T01:19:28.768Z,100261.81
2018-09-21T01:21:56.885Z,100257.14
2018-09-21T01:24:25.047Z,100254.48
2018-09-21T01:26:53.189Z,100254.51
2018-09-21T01:29:21.343Z,100249.20
2018-09-21T01:31:49.440Z,100248.85
2018-09-21T01:34:17.611Z,100246.15
2018-09-21T01:36:45.688Z,100247.34
2018-09-21T01:39:13.839Z,100254.09
2018-09-21T01:41:42.011Z,100248.23
2018-09-21T01:44:10.396Z,100247.26
2018-09-21T01:46:38.845Z,100235.95
2018-09-21T01:49:07.080Z,100235.03
2018-09-21T01:51:35.219Z,100233.34
2018-09-21T01:54:03.320Z,100226.80
2018-09-21T01:56:31.468Z,100225.38
2018-09-21T01:58:59.560Z,100228.55
2018-09-21T02:01:27.700Z,100224.64
2018-09-21T02:03:55.811Z,100213.02
2018-09-21T02:06:23.912Z,100210.24
2018-09-21T02:08:52.017Z,100195.59
2018-09-21T02:11:20.274Z,100195.14
2018-09-21T02:13:48.529Z,100191.80
2018-09-21T02:16:16.643Z,100188.60
2018-09-21T02:18:44.739Z,100187.08
2018-09-21T02:21:12.872Z,100188.88
2018-09-21T02:23:41.782Z,100186.44
2018-09-21T02:26:09.918Z,100177.19
2018-09-21T02:28:38.004Z,100169.84
2018-09-21T02:31:06.312Z,100169.98
2018-09-21T02:33:34.403Z,100166.59
2018-09-21T02:36:02.565Z,100164.11
2018-09-21T02:38:30.700Z,100153.11
2018-09-21T02:40:58.842Z,100145.01
2018-09-21T02:43:26.965Z,100147.67
2018-09-21T02:45:55.133Z,100137.84
2018-09-21T02:48:23.263Z,100138.63
2018-09-21T02:50:51.385Z,100131.44
2018-09-21T02:53:19.505Z,100125.69
2018-09-21T02:55:47.635Z,100130.07
2018-09-21T02:58:15.763Z,100119.62
2018-09-21T03:00:43.963Z,100118.59
2018-09-21T03:03:12.018Z,100113.84
2018-09-21T03:05:40.185Z,100111.00
2018-09-21T03:08:08.309Z,100111.26
2018-09-21T03:10:36.409Z,100107.72
2018-09-21T03:13:04.510Z,100104.18
2018-09-21T03:15:32.607Z,100097.27
2018-09-21T03:18:00.722Z,100087.08
2018-09-21T03:20:28.849Z,100085.16
2018-09-21T03:22:56.982Z,100083.28
2018-09-21T03:25:25.158Z,100072.36
2018-09-21T03:27:53.281Z,100071.75
2018-09-21T03:30:21.426Z,100067.44
2018-09-21T03:32:49.525Z,100067.34
2018-09-21T03:35:17.699Z,100060.10
2018-09-21T03:37:45.801Z,100052.35
2018-09-21T03:40:13.907Z,100055.34
2018-09-21T03:42:42.000Z,100048.64
2018-09-21T03:45:10.112Z,100048.29
2018-09-21T03:47:38.282Z,100043.66
2018-09-21T03:50:06.539Z,100042.00
2018-09-21T03:52:34.659Z,100035.42
2018-09-21T03:55:02.761Z,100029.56
2018-09-21T03:57:30.882Z,100025.39
2018-09-21T03:59:59.000Z,100010.08
2018-09-21T04:02:27.148Z,99999.38
2018-09-21T04:04:55.352Z,99987.80
2018-09-21T04:07:23.508Z,99990.19
2018-09-21T04:09:51.622Z,99982.95
2018-09-21T04:12:19.725Z,99980.30
2018-09-21T04:14:47.907Z,99975.16
2018-09-21T04:17:16.049Z,99969.36
2018-09-21T04:19:44.202Z,99953.59
2018-09-21T04:22:12.336Z,99953.49
2018-09-21T04:24:40.455Z,99949.52
2018-09-21T04:27:08.618Z,99946.84
2018-09-21T04:29:36.752Z,99934.05
2018-09-21T04:32:04.933Z,99922.02
2018-09-21T04:34:33.080Z,99910.01
2018-09-21T04:37:01.209Z,99912.70
2018-09-21T04:39:29.346Z,99900.84
2018-09-21T04:41:57.441Z,99901.58
2018-09-21T04:44:25.549Z,99910.55
2018-09-21T04:46:53.679Z,99911.48
2018-09-21T04:49:21.805Z,99906.00
2018-09-21T04:51:49.954Z,99896.33
2018-09-21T04:54:18.090Z,99894.22
2018-09-21T04:56:46.207Z,99900.89
2018-09-21T04:59:14.338Z,99888.27
2018-09-21T05:01:42.517Z,99878.80
2018-09-21T05:04:10.700Z,99860.73
2018-09-21T05:06:38.845Z,99863.23
2018-09-21T05:09:08.242Z,99850.88
2018-09-21T05:11:36.353Z,99850.38
2018-09-21T05:14:04.628Z,99845.77
2018-09-21T05:16:32.763Z,99833.42
2018-09-21T05:19:00.889Z,99829.82
2018-09-21T05:21:28.981Z,99811.52
2018-09-21T05:23:57.077Z,99817.98
2018-09-21T05:26:25.157Z,99809.40
2018-09-21T05:28:53.296Z,99806.69
2018-09-21T05:31:21.386Z,99809.16
2018-09-21T05:33:49.537Z,99800.41
2018-09-21T05:36:17.656Z,99785.44
2018-09-21T05:38:45.763Z,99778.84
2018-09-21T05:41:13.885Z,99781.06
2018-09-21T05:43:42.430Z,99774.78
2018-09-21T05:46:10.536Z,99767.03
2018-09-21T05:48:38.739Z,99769.03
2018-09-21T05:51:07.109Z,99772.55
2018-09-21T05:53:35.204Z,99774.55
2018-09-21T05:56:03.357Z,99767.77
2018-09-21T05:58:31.462Z,99766.79
2018-09-21T06:00:59.582Z,99769.28
2018-09-21T06:03:27.713Z,99769.94
2018-09-21T06:05:55.833Z,99763.14
2018-09-21T06:08:24.009Z,99760.06
2018-09-21T06:10:52.093Z,99747.78
2018-09-21T06:13:20.233Z,99744.27
2018-09-21T06:15:48.334Z,99734.33
2018-09-21T06:18:16.653Z,99729.34
2018-09-21T06:20:44.789Z,99731.02
2018-09-21T06:23:12.922Z,99723.17
2018-09-21T06:25:41.053Z,99726.94
2018-09-21T06:28:09.208Z,99722.45
2018-09-21T06:30:37.355Z,99715.97
2018-09-21T06:33:05.463Z,99708.91
2018-09-21T06:35:33.533Z,99698.41
2018-09-21T06:38:01.673Z,99697.14
2018-09-21T06:40:29.807Z,99694.13
2018-09-21T06:42:57.917Z,99696.82
2018-09-21T06:45:26.120Z,99683.84
2018-09-21T06:47:54.356Z,99676.60
2018-09-21T06:50:22.497Z,99669.88
2018-09-21T06:52:50.629Z,99654.20
2018-09-21T06:55:18.796Z,99645.45
2018-09-21T06:57:46.937Z,99640.64
2018-09-21T07:00:15.081Z,99642.34
2018-09-21T07:02:43.194Z,99638.61
2018-09-21T07:05:13.022Z,99633.87
2018-09-21T07:07:41.173Z,99635.97
2018-09-21T07:10:09.289Z,99631.12
2018-09-21T07:12:37.447Z,99636.56
2018-09-21T07:15:05.593Z,99633.31
2018-09-21T07:17:33.732Z,99631.62
2018-09-21T07:20:01.931Z,99628.58
2018-09-21T07:22:30.048Z,99626.00
2018-09-21T07:24:58.222Z,99616.66
2018-09-21T07:27:26.326Z,99601.98
2018-09-21T07:29:54.417Z,99612.92
2018-09-21T07:32:22.671Z,99610.94
2018-09-21T07:34:50.772Z,99607.23
2018-09-21T07:37:18.921Z,99612.69
2018-09-21T07:39:47.022Z,99617.77
2018-09-21T07:42:15.397Z,99630.34
2018-09-21T07:44:43.515Z,99633.28
2018-09-21T07:47:11.597Z,99622.97
2018-09-21T07:49:39.728Z,99619.20
2018-09-21T07:52:07.835Z,99622.62
2018-09-21T07:54:35.985Z,99621.55
2018-09-21T07:57:04.113Z,99616.55
2018-09-21T07:59:32.427Z,99616.00
2018-09-21T08:02:00.919Z,99613.47
2018-09-21T08:04:29.412Z,99608.64
2018-09-21T08:06:57.572Z,99611.95
2018-09-21T08:09:25.718Z,99600.36
2018-09-21T08:11:53.876Z,99591.77
2018-09-21T08:14:21.986Z,99604.37
2018-09-21T08:16:50.111Z,99595.31
2018-09-21T08:19:18.275Z,99615.03
2018-09-21T08:21:46.372Z,99612.70
2018-09-21T08:24:14.482Z,99610.14
2018-09-21T08:26:42.727Z,99596.55
2018-09-21T08:29:10.737Z,99588.80
2018-09-21T08:31:38.890Z,99578.28
2018-09-21T08:34:07.122Z,99559.72
2018-09-21T08:36:35.257Z,99568.19
2018-09-21T08:39:03.553Z,99557.59
2018-09-21T08:41:31.708Z,99563.97
2018-09-21T08:43:59.824Z,99562.95
2018-09-21T08:46:27.951Z,99558.59
2018-09-21T08:48:56.059Z,99554.64
2018-09-21T08:51:24.164Z,99556.69
2018-09-21T08:53:52.307Z,99570.47
2018-09-21T08:56:20.426Z,99559.27
2018-09-21T08:58:48.513Z,99577.49
2018-09-21T09:01:16.699Z,99568.16
2018-09-21T09:03:44.812Z,99568.09
2018-09-21T09:06:12.953Z,99573.49
2018-09-21T09:08:41.057Z,99573.11
2018-09-21T09:11:09.186Z,99577.72
2018-09-21T09:13:37.277Z,99568.38
2018-09-21T09:16:05.373Z,99567.10
2018-09-21T09:18:33.484Z,99573.07
2018-09-21T09:21:01.633Z,99565.26
2018-09-21T09:23:29.781Z,99561.64
2018-09-21T09:25:57.910Z,99563.92
2018-09-21T09:28:26.040Z,99573.89
2018-09-21T09:30:54.209Z,99570.27
2018-09-21T09:33:22.309Z,99574.46
2018-09-21T09:35:50.422Z,99569.02
2018-09-21T09:38:18.729Z,99574.02
2018-09-21T09:40:46.801Z,99576.48
2018-09-21T09:43:14.915Z,99581.31
2018-09-21T09:45:43.021Z,99585.02
2018-09-21T09:48:11.169Z,99583.97
2018-09-21T09:50:39.302Z,99569.75
2018-09-21T09:53:07.402Z,99579.14
2018-09-21T09:55:35.513Z,99584.16
2018-09-21T09:58:03.645Z,99584.61
2018-09-21T10:00:35.809Z,99581.72
2018-09-21T10:03:03.933Z,99570.63
2018-09-21T10:05:32.064Z,99564.73
2018-09-21T10:08:00.174Z,99562.28
2018-09-21T10:10:28.341Z,99583.58
2018-09-21T10:12:56.437Z,99567.77
2018-09-21T10:15:24.546Z,99564.97
2018-09-21T10:17:52.663Z,99563.55
2018-09-21T10:20:20.813Z,99565.70
2018-09-21T10:22:48.930Z,99561.25
2018-09-21T10:25:17.045Z,99563.82
2018-09-21T10:27:45.260Z,99567.77
2018-09-21T10:30:13.261Z,99577.13
2018-09-21T10:32:41.380Z,99566.58
2018-09-21T10:35:09.522Z,99563.84
2018-09-21T10:37:37.631Z,99565.55
2018-09-21T10:40:05.840Z,99565.70
2018-09-21T10:42:33.970Z,99565.45
2018-09-21T10:45:02.045Z,99560.72
2018-09-21T10:47:30.197Z,99554.89
2018-09-21T10:49:58.313Z,99555.64
2018-09-21T10:52:26.463Z,99561.25
2018-09-21T10:54:54.597Z,99569.84
2018-09-21T10:57:22.709Z,99569.45
2018-09-21T10:59:50.836Z,99584.36
2018-09-21T11:02:18.939Z,99591.92
2018-09-21T11:04:47.068Z,99637.10
2018-09-21T11:07:15.263Z,99669.34
2018-09-21T11:09:43.328Z,99704.14
2018-09-21T11:12:11.479Z,99722.48
2018-09-21T11:14:39.636Z,99742.88
2018-09-21T11:17:07.805Z,99740.56
2018-09-21T11:19:35.915Z,99740.66
2018-09-21T11:22:04.043Z,99741.75
2018-09-21T11:24:32.186Z,99748.15
2018-09-21T11:27:00.322Z,99759.70
2018-09-21T11:29:28.454Z,99770.82
2018-09-21T11:31:56.580Z,99793.92
2018-09-21T11:34:24.705Z,99808.86
2018-09-21T11:36:52.838Z,99813.38
2018-09-21T11:39:20.969Z,99822.77
2018-09-21T11:41:49.117Z,99810.17
2018-09-21T11:44:17.238Z,99810.05
2018-09-21T11:46:45.406Z,99819.20
2018-09-21T11:49:13.589Z,99814.47
2018-09-21T11:51:41.701Z,99817.29
2018-09-21T11:54:09.838Z,99807.50
2018-09-21T11:56:37.980Z,99819.56
2018-09-21T11:59:06.109Z,99824.91
2018-09-21T12:01:34.267Z,99831.43
2018-09-21T12:04:02.418Z,99848.03
2018-09-21T12:06:30.590Z,99864.27
2018-09-21T12:08:58.757Z,99883.73
2018-09-21T12:11:26.931Z,99889.88
2018-09-21T12:13:55.080Z,99889.09
2018-09-21T12:16:23.186Z,99870.17
2018-09-21T12:18:51.344Z,99870.50
2018-09-21T12:21:19.701Z,99868.08
2018-09-21T12:23:47.902Z,99863.83
2018-09-21T12:26:16.013Z,99855.44
2018-09-21T12:28:44.190Z,99882.06
2018-09-21T12:31:12.332Z,99863.13
2018-09-21T12:33:40.457Z,99871.24
2018-09-21T12:36:08.772Z,99881.53
2018-09-21T12:38:36.899Z,99874.00
2018-09-21T12:41:05.021Z,99878.80
2018-09-21T12:43:33.299Z,99868.11
2018-09-21T12:46:02.356Z,99882.70
2018-09-21T12:48:30.492Z,99874.81
2018-09-21T12:50:58.648Z,99862.77
2018-09-21T12:53:26.753Z,99886.39
2018-09-21T12:55:54.882Z,99907.00
2018-09-21T12:58:23.145Z,99920.14
2018-09-21T13:00:51.708Z,99927.30
2018-09-21T13:03:20.568Z,99928.58
2018-09-21T13:05:52.848Z,99907.78
2018-09-21T13:08:20.983Z,99916.28
2018-09-21T13:10:49.157Z,99900.45
2018-09-21T13:13:17.292Z,99910.34
2018-09-21T13:15:45.429Z,99911.94
2018-09-21T13:18:13.591Z,99910.16
2018-09-21T13:20:41.858Z,99928.10
2018-09-21T13:23:10.061Z,99914.92
2018-09-21T13:25:38.342Z,99907.70
2018-09-21T13:28:06.785Z,99917.34
2018-09-21T13:30:34.896Z,99924.86
2018-09-21T13:33:03.189Z,99923.63
2018-09-21T13:35:31.377Z,99936.72
2018-09-21T13:38:00.089Z,99934.30
2018-09-21T13:40:28.255Z,99919.80
2018-09-21T13:42:56.429Z,99902.70
2018-09-21T13:45:24.585Z,99908.14
2018-09-21T13:47:53.297Z,99915.38
2018-09-21T13:50:21.702Z,99917.59
2018-09-21T13:52:49.871Z,99917.91
2018-09-21T13:55:17.973Z,99927.05
2018-09-21T13:57:46.156Z,99919.48
2018-09-21T14:00:14.366Z,99912.20
2018-09-21T14:02:43.111Z,99916.45
2018-09-21T14:05:11.499Z,99922.58
2018-09-21T14:07:40.284Z,99923.44
2018-09-21T14:10:08.416Z,99932.91
2018-09-21T14:12:36.562Z,99931.08
2018-09-21T14:15:04.809Z,99937.05
2018-09-21T14:17:32.972Z,99955.87
2018-09-21T14:20:01.115Z,99957.16
2018-09-21T14:22:29.337Z,99956.28
2018-09-21T14:24:57.493Z,99947.86
2018-09-21T14:27:25.653Z,99962.40
2018-09-21T14:29:54.883Z,99968.66
2018-09-21T14:32:24.099Z,99962.12
2018-09-21T14:34:52.267Z,99979.32
2018-09-21T14:37:20.438Z,99982.80
2018-09-21T14:39:48.565Z,99984.19
2018-09-21T14:42:16.713Z,99985.13
2018-09-21T14:44:44.945Z,99993.03
2018-09-21T14:47:13.088Z,100003.31
2018-09-21T14:49:41.241Z,100000.36
2018-09-21T14:52:09.383Z,99988.06
2018-09-21T14:54:37.515Z,99987.95
2018-09-21T14:57:05.679Z,100005.03
2018-09-21T14:59:33.842Z,100005.51
2018-09-21T15:02:02.020Z,100002.80
2018-09-21T15:04:30.342Z,100007.93
2018-09-21T15:06:58.509Z,100031.45
2018-09-21T15:09:26.654Z,100019.87
2018-09-21T15:11:55.039Z,100011.03
2018-09-21T15:14:23.530Z,100014.27
2018-09-21T15:16:51.989Z,100014.70
2018-09-21T15:19:20.750Z,100001.92
2018-09-21T15:21:49.316Z,100008.05
2018-09-21T15:24:17.723Z,100010.41
2018-09-21T15:26:46.054Z,100016.61
2018-09-21T15:29:14.180Z,100028.16
2018-09-21T15:31:42.345Z,100017.16
2018-09-21T15:34:10.505Z,100011.74
2018-09-21T15:36:38.620Z,100010.91
2018-09-21T15:39:09.435Z,100014.48
2018-09-21T15:41:37.612Z,100014.84
2018-09-21T15:44:05.882Z,100012.02
2018-09-21T15:46:34.012Z,100019.55
2018-09-21T15:49:02.913Z,100035.16
2018-09-21T15:51:31.807Z,100037.42
2018-09-21T15:53:59.969Z,100041.48
2018-09-21T15:56:28.206Z,100036.09
2018-09-21T15:58:56.364Z,100057.77
2018-09-21T16:01:31.349Z,100044.17
2018-09-21T16:03:59.678Z,100048.59
2018-09-21T16:06:32.469Z,100061.77
2018-09-21T16:09:01.250Z,100044.57
2018-09-21T16:11:29.475Z,100049.11
2018-09-21T16:13:57.680Z,100057.83
2018-09-21T16:16:25.895Z,100057.35
2018-09-21T16:18:54.222Z,100065.38
2018-09-21T16:21:22.727Z,100061.92
2018-09-21T16:23:50.895Z,100076.37
2018-09-21T16:26:19.119Z,100087.95
2018-09-21T16:29:41.431Z,100077.31
2018-09-21T16:32:09.658Z,100084.00
2018-09-21T16:34:37.883Z,100073.14
2018-09-21T16:37:06.165Z,100080.42
2018-09-21T16:39:34.341Z,100086.15
2018-09-21T16:42:02.535Z,100087.34
2018-09-21T16:44:30.784Z,100094.77
2018-09-21T16:46:58.929Z,100089.38
2018-09-21T16:49:27.088Z,100097.38
2018-09-21T16:51:55.249Z,100097.02
2018-09-21T16:54:23.409Z,100099.49
2018-09-21T16:56:51.571Z,100103.55
2018-09-21T16:59:19.800Z,100109.03
2018-09-21T17:01:47.925Z,100109.77
2018-09-21T17:04:16.190Z,100116.19
2018-09-21T17:06:44.268Z,100121.22
2018-09-21T17:09:13.036Z,100121.80
2018-09-21T17:11:41.168Z,100135.52
2018-09-21T17:14:09.389Z,100133.25
2018-09-21T17:16:37.590Z,100141.48
2018-09-21T17:19:06.151Z,100150.20
2018-09-21T17:21:37.288Z,100158.19
2018-09-21T17:24:12.460Z,100162.54
2018-09-21T17:26:40.664Z,100173.72
2018-09-21T17:29:08.823Z,100168.36
2018-09-21T17:31:37.018Z,100173.68
2018-09-21T17:34:05.377Z,100175.97
2018-09-21T17:36:33.680Z,100178.87
2018-09-21T17:39:01.885Z,100186.59
2018-09-21T17:41:30.089Z,100190.41
2018-09-21T17:43:58.258Z,100194.38
2018-09-21T17:46:26.416Z,100201.45
2018-09-21T17:48:54.649Z,100201.30
2018-09-21T17:51:22.849Z,100193.89
2018-09-21T17:53:51.045Z,100210.02
2018-09-21T17:56:19.193Z,100206.46
2018-09-21T17:58:47.364Z,100209.76
2018-09-21T18:01:16.266Z,100218.72
2018-09-21T18:03:45.151Z,100224.59
2018-09-21T18:06:13.983Z,100234.41
2018-09-21T18:08:42.887Z,100234.98
2018-09-21T18:11:11.914Z,100245.48
2018-09-21T18:13:41.762Z,100252.41
2018-09-21T18:16:10.694Z,100249.86
2018-09-21T18:18:39.539Z,100251.75
2018-09-21T18:21:08.357Z,100253.30
2018-09-21T18:23:37.044Z,100256.98
2018-09-21T18:26:06.132Z,100260.08
2018-09-21T18:28:34.983Z,100259.03
2018-09-21T18:31:03.811Z,100265.78
2018-09-21T18:33:32.611Z,100271.13
2018-09-21T18:36:00.812Z,100272.50
2018-09-21T18:38:28.953Z,100270.36
2018-09-21T18:40:57.137Z,100283.59
2018-09-21T18:43:25.245Z,100293.34
2018-09-21T18:45:53.385Z,100301.20
2018-09-21T18:48:21.529Z,100294.00
2018-09-21T18:50:50.023Z,100304.45
2018-09-21T18:53:18.080Z,100305.67
2018-09-21T18:55:46.241Z,100299.98
2018-09-21T18:58:14.373Z,100301.55
2018-09-21T19:00:42.509Z,100311.08
2018-09-21T19:03:10.626Z,100313.05
2018-09-21T19:05:38.796Z,100316.81
2018-09-21T19:08:06.964Z,100324.34
2018-09-21T19:10:35.129Z,100328.67
2018-09-21T19:13:03.288Z,100328.52
2018-09-21T19:15:31.428Z,100327.19
2018-09-21T19:17:59.542Z,100329.30
2018-09-21T19:20:27.706Z,100328.22
2018-09-21T19:22:55.856Z,100335.27
2018-09-21T19:25:23.964Z,100337.33
2018-09-21T19:27:52.119Z,100333.67
2018-09-21T19:30:20.293Z,100334.78
2018-09-21T19:32:48.484Z,100333.41
2018-09-21T19:35:16.545Z,100336.41
2018-09-21T19:37:44.665Z,100332.57
2018-09-21T19:40:12.820Z,100334.99
2018-09-21T19:42:41.024Z,100340.20
2018-09-21T19:45:09.270Z,100338.16
2018-09-21T19:47:37.271Z,100343.42
2018-09-21T19:50:06.063Z,100351.82
2018-09-21T19:52:34.222Z,100347.78
2018-09-21T19:55:02.346Z,100346.84
2018-09-21T19:57:30.569Z,100341.82
2018-09-21T19:59:58.795Z,100348.17
2018-09-21T20:02:26.983Z,100361.09
2018-09-21T20:04:55.187Z,100359.61
2018-09-21T20:07:23.309Z,100378.12
2018-09-21T20:09:51.474Z,100382.03
2018-09-21T20:12:19.616Z,100397.10
2018-09-21T20:14:47.761Z,100395.12
2018-09-21T20:17:15.885Z,100395.70
2018-09-21T20:19:44.053Z,100399.06
2018-09-21T20:22:12.224Z,100401.71
2018-09-21T20:24:40.388Z,100402.27
2018-09-21T20:27:08.534Z,100410.79
2018-09-21T20:29:36.640Z,100415.09
2018-09-21T20:32:10.151Z,100427.16
2018-09-21T20:34:38.297Z,100424.25
2018-09-21T20:37:06.459Z,100439.23
2018-09-21T20:39:34.582Z,100443.75
2018-09-21T20:42:02.692Z,100435.16
2018-09-21T20:44:30.838Z,100438.23
2018-09-21T20:46:59.013Z,100458.25
2018-09-21T20:49:27.147Z,100459.00
2018-09-21T20:51:55.397Z,100462.83
2018-09-21T20:54:23.482Z,100449.74
2018-09-21T20:56:51.621Z,100461.80
2018-09-21T20:59:20.498Z,100465.35
2018-09-21T21:01:48.649Z,100465.47
2018-09-21T21:04:16.749Z,100466.31
2018-09-21T21:06:44.889Z,100478.56
2018-09-21T21:09:13.021Z,100465.19
2018-09-21T21:11:41.154Z,100462.75
2018-09-21T21:14:09.298Z,100462.47
2018-09-21T21:16:37.429Z,100458.19
2018-09-21T21:19:05.976Z,100467.90
2018-09-21T21:21:34.141Z,100464.08
2018-09-21T21:24:02.292Z,100475.27
2018-09-21T21:26:30.461Z,100477.61
2018-09-21T21:28:58.606Z,100476.77
2018-09-21T21:31:26.792Z,100484.14
2018-09-21T21:33:54.933Z,100489.38
2018-09-21T21:36:23.049Z,100495.98
2018-09-21T21:38:51.169Z,100488.52
2018-09-21T21:41:19.316Z,100500.93
2018-09-21T21:43:47.461Z,100498.41
2018-09-21T21:46:15.613Z,100494.30
2018-09-21T21:48:43.757Z,100504.65
2018-09-21T21:51:11.882Z,100510.80
2018-09-21T21:53:40.665Z,100512.95
2018-09-21T21:56:08.855Z,100522.08
2018-09-21T21:58:36.961Z,100524.22
2018-09-21T22:01:10.615Z,100519.13
2018-09-21T22:03:39.099Z,100519.00
2018-09-21T22:06:07.268Z,100506.64
2018-09-21T22:08:35.460Z,100506.98
2018-09-21T22:11:07.816Z,100512.84
2018-09-21T22:13:44.353Z,100514.70
2018-09-21T22:16:12.510Z,100519.55
2018-09-21T22:18:40.660Z,100510.98
2018-09-21T22:21:08.852Z,100508.67
2018-09-21T22:23:37.017Z,100507.23
2018-09-21T22:26:05.128Z,100508.04
2018-09-21T22:28:33.296Z,100509.60
2018-09-21T22:31:01.423Z,100516.92
2018-09-21T22:33:29.562Z,100506.23
2018-09-21T22:35:57.765Z,100509.81
2018-09-21T22:38:25.892Z,100522.53
2018-09-21T22:40:54.084Z,100516.67
2018-09-21T22:43:22.283Z,100523.46
2018-09-21T22:45:50.453Z,100524.80
2018-09-21T22:48:18.598Z,100534.98
2018-09-21T22:50:46.749Z,100530.98
2018-09-21T22:53:14.897Z,100530.78
2018-09-21T22:55:43.046Z,100527.41
2018-09-21T22:58:11.204Z,100525.14
2018-09-21T23:00:39.308Z,100530.14
2018-09-21T23:03:07.408Z,100525.02
2018-09-21T23:05:35.561Z,100521.77
2018-09-21T23:08:03.726Z,100527.59
2018-09-21T23:10:31.836Z,100526.22
2018-09-21T23:12:59.974Z,100535.16
2018-09-21T23:15:28.098Z,100537.53
2018-09-21T23:17:56.250Z,100530.68
2018-09-21T23:20:24.452Z,100529.08
2018-09-21T23:22:52.569Z,100533.76
2018-09-21T23:25:20.672Z,100533.86
2018-09-21T23:27:48.773Z,100543.52
2018-09-21T23:30:16.902Z,100546.36
2018-09-21T23:32:45.017Z,100537.02
2018-09-21T23:35:13.175Z,100540.91
2018-09-21T23:37:41.312Z,100542.08
2018-09-21T23:40:09.449Z,100547.14
2018-09-21T23:42:37.583Z,100542.81
2018-09-21T23:45:12.132Z,100551.77
2018-09-21T23:47:40.278Z,100561.50
2018-09-21T23:50:08.443Z,100548.28
2018-09-21T23:52:36.581Z,100555.59
2018-09-21T23:55:04.919Z,100557.09
2018-09-21T23:57:33.060Z,100551.74
